createdAt,value
2023-03-29T00:02:37.010Z,99.90
2023-03-29T00:05:41.614Z,99.90
2023-03-29T00:08:46.271Z,99.90
2023-03-29T00:11:50.846Z,99.90
2023-03-29T00:14:55.208Z,99.90
2023-03-29T00:17:59.667Z,99.90
2023-03-29T00:21:04.299Z,99.90
2023-03-29T00:24:09.074Z,99.90
2023-03-29T00:27:13.674Z,99.90
2023-03-29T00:30:17.786Z,99.90
2023-03-29T00:33:22.801Z,99.90
2023-03-29T00:36:27.791Z,99.90
2023-03-29T00:39:31.960Z,99.90
2023-03-29T00:42:36.512Z,99.90
2023-03-29T00:45:41.011Z,99.90
2023-03-29T00:48:45.090Z,99.90
2023-03-29T00:51:49.872Z,99.90
2023-03-29T00:54:55.105Z,99.90
2023-03-29T00:58:01.057Z,99.90
2023-03-29T01:01:13.699Z,99.90
2023-03-29T01:04:29.618Z,99.90
2023-03-29T01:07:48.167Z,99.90
2023-03-29T01:10:58.820Z,99.90
2023-03-29T01:14:05.484Z,99.90
2023-03-29T01:17:10.966Z,99.90
2023-03-29T01:20:19.165Z,99.90
2023-03-29T01:23:43.663Z,99.90
2023-03-29T01:26:56.051Z,99.90
2023-03-29T01:30:04.135Z,99.90
2023-03-29T01:33:12.059Z,99.90
2023-03-29T01:36:19.239Z,99.90
2023-03-29T01:39:23.383Z,88.10
2023-03-29T01:42:27.832Z,74.30
2023-03-29T01:45:38.370Z,44.30
2023-03-29T01:48:49.295Z,15.10
2023-03-29T01:51:56.404Z,1.00
2023-03-29T01:55:08.199Z,1.00
2023-03-29T01:58:14.201Z,1.00
2023-03-29T02:01:23.020Z,1.00
2023-03-29T02:04:30.465Z,1.00
2023-03-29T02:07:38.166Z,1.00
2023-03-29T02:10:42.842Z,1.00
2023-03-29T02:13:48.979Z,1.00
2023-03-29T02:16:53.612Z,1.00
2023-03-29T02:20:13.834Z,1.00
2023-03-29T02:23:34.014Z,1.00
2023-03-29T02:26:38.316Z,1.00
2023-03-29T02:29:43.176Z,1.00
2023-03-29T02:32:49.033Z,1.00
2023-03-29T02:36:03.580Z,1.00
2023-03-29T02:39:09.766Z,1.00
2023-03-29T02:42:17.023Z,1.00
2023-03-29T02:45:22.607Z,1.00
2023-03-29T02:48:29.432Z,1.00
2023-03-29T02:51:34.978Z,1.00
2023-03-29T02:54:43.087Z,1.00
2023-03-29T02:57:47.823Z,1.00
2023-03-29T03:00:53.196Z,1.00
2023-03-29T03:03:58.465Z,1.00
2023-03-29T03:07:05.065Z,1.00
2023-03-29T03:10:10.164Z,1.00
2023-03-29T03:13:15.483Z,6.10
2023-03-29T03:16:19.420Z,17.00
2023-03-29T03:19:24.164Z,37.50
2023-03-29T03:22:28.902Z,47.80
2023-03-29T03:25:35.159Z,51.80
2023-03-29T03:28:40.109Z,57.80
2023-03-29T03:31:48.156Z,78.70
2023-03-29T03:35:12.998Z,71.40
2023-03-29T03:38:18.095Z,96.00
2023-03-29T03:41:27.280Z,99.90
2023-03-29T03:44:31.585Z,99.90
2023-03-29T03:47:54.878Z,99.90
2023-03-29T03:51:15.351Z,99.90
2023-03-29T03:54:20.067Z,99.90
2023-03-29T03:57:47.924Z,99.90
2023-03-29T04:00:55.401Z,99.90
2023-03-29T04:04:19.669Z,99.90
2023-03-29T04:07:43.205Z,99.90
2023-03-29T04:11:07.562Z,99.90
2023-03-29T04:14:15.323Z,99.90
2023-03-29T04:17:40.633Z,99.90
2023-03-29T04:21:05.650Z,99.90
2023-03-29T04:24:12.251Z,99.90
2023-03-29T04:27:20.061Z,99.90
2023-03-29T04:30:24.262Z,99.90
2023-03-29T04:33:40.723Z,99.90
2023-03-29T04:36:45.794Z,99.90
2023-03-29T04:39:57.269Z,99.90
2023-03-29T04:43:02.483Z,99.90
2023-03-29T04:46:07.990Z,99.90
2023-03-29T04:49:32.482Z,99.90
2023-03-29T04:52:37.241Z,99.90
2023-03-29T04:55:43.262Z,99.90
2023-03-29T04:58:51.805Z,99.90
2023-03-29T05:01:56.736Z,99.90
2023-03-29T05:05:01.404Z,99.90
2023-03-29T05:08:05.878Z,99.90
2023-03-29T05:11:16.622Z,99.90
2023-03-29T05:14:21.512Z,99.90
2023-03-29T05:17:27.554Z,99.90
2023-03-29T05:20:37.898Z,99.90
2023-03-29T05:23:44.851Z,99.90
2023-03-29T05:27:08.624Z,99.90
2023-03-29T05:30:17.941Z,99.90
2023-03-29T05:33:32.414Z,99.90
2023-03-29T05:36:39.049Z,99.90
2023-03-29T05:39:43.787Z,99.90
2023-03-29T05:42:48.696Z,99.90
2023-03-29T05:45:54.778Z,99.90
2023-03-29T05:48:59.740Z,99.90
2023-03-29T05:52:19.657Z,99.90
2023-03-29T05:55:24.687Z,99.90
2023-03-29T05:58:29.267Z,99.90
2023-03-29T06:01:34.228Z,99.90
2023-03-29T06:04:42.696Z,99.90
2023-03-29T06:08:02.864Z,99.90
2023-03-29T06:11:46.488Z,99.90
2023-03-29T06:15:07.065Z,99.90
2023-03-29T06:18:44.827Z,99.90
2023-03-29T06:21:49.066Z,99.90
2023-03-29T06:24:58.442Z,99.90
2023-03-29T06:28:07.625Z,99.90
2023-03-29T06:31:13.152Z,99.90
2023-03-29T06:34:17.676Z,99.90
2023-03-29T06:37:34.675Z,99.90
2023-03-29T06:40:52.697Z,99.90
2023-03-29T06:43:59.179Z,99.90
2023-03-29T06:47:10.798Z,99.90
2023-03-29T06:50:15.400Z,99.90
2023-03-29T06:53:32.278Z,99.90
2023-03-29T06:56:39.614Z,99.90
2023-03-29T06:59:49.108Z,99.90
2023-03-29T07:02:58.666Z,99.90
2023-03-29T07:06:09.588Z,99.90
2023-03-29T07:09:18.349Z,99.90
2023-03-29T07:13:02.100Z,99.90
2023-03-29T07:16:07.148Z,99.90
2023-03-29T07:19:37.800Z,99.90
2023-03-29T07:22:52.949Z,99.90
2023-03-29T07:25:57.615Z,99.90
2023-03-29T07:29:03.837Z,99.90
2023-03-29T07:32:08.391Z,99.90
2023-03-29T07:35:13.435Z,99.90
2023-03-29T07:38:18.500Z,99.90
2023-03-29T07:41:27.332Z,99.90
2023-03-29T07:44:41.641Z,99.90
2023-03-29T07:47:46.653Z,99.90
2023-03-29T07:50:51.138Z,99.90
2023-03-29T07:53:59.794Z,99.90
2023-03-29T07:57:24.884Z,99.90
2023-03-29T08:00:33.186Z,99.90
2023-03-29T08:03:57.658Z,99.90
2023-03-29T08:07:20.020Z,99.90
2023-03-29T08:10:53.311Z,99.90
2023-03-29T08:14:29.631Z,99.90
2023-03-29T08:17:58.694Z,99.90
2023-03-29T08:21:04.765Z,99.90
2023-03-29T08:24:09.303Z,99.90
2023-03-29T08:27:20.156Z,99.90
2023-03-29T08:30:25.131Z,99.90
2023-03-29T08:33:29.831Z,99.90
2023-03-29T08:36:55.551Z,99.90
2023-03-29T08:40:22.299Z,99.90
2023-03-29T08:43:42.420Z,99.90
2023-03-29T08:46:49.859Z,99.90
2023-03-29T08:50:14.764Z,99.90
2023-03-29T08:53:32.745Z,99.90
2023-03-29T08:56:52.935Z,99.90
2023-03-29T09:00:13.330Z,99.90
2023-03-29T09:03:38.100Z,99.90
2023-03-29T09:06:49.547Z,99.90
2023-03-29T09:09:58.607Z,99.90
2023-03-29T09:13:19.899Z,99.90
2023-03-29T09:16:36.864Z,99.90
2023-03-29T09:19:47.348Z,99.90
2023-03-29T09:22:57.632Z,99.90
2023-03-29T09:26:11.328Z,99.90
2023-03-29T09:29:45.428Z,99.90
2023-03-29T09:32:57.375Z,99.90
2023-03-29T09:36:09.417Z,99.90
2023-03-29T09:39:16.252Z,99.90
2023-03-29T09:42:27.700Z,99.90
2023-03-29T09:45:32.247Z,99.90
2023-03-29T09:48:38.434Z,99.90
2023-03-29T09:51:43.183Z,99.90
2023-03-29T09:54:47.703Z,99.90
2023-03-29T09:58:18.088Z,99.90
2023-03-29T10:01:34.756Z,99.90
2023-03-29T10:04:41.967Z,99.90
2023-03-29T10:07:48.894Z,99.90
2023-03-29T10:10:53.860Z,99.90
2023-03-29T10:14:01.722Z,99.90
2023-03-29T10:17:11.179Z,99.90
2023-03-29T10:20:18.538Z,99.90
2023-03-29T10:23:22.788Z,99.90
2023-03-29T10:26:32.529Z,99.90
2023-03-29T10:29:38.666Z,99.90
2023-03-29T10:32:43.308Z,99.90
2023-03-29T10:35:48.609Z,99.90
2023-03-29T10:38:54.132Z,99.90
2023-03-29T10:41:59.150Z,99.90
2023-03-29T10:45:03.711Z,99.90
2023-03-29T10:48:15.093Z,99.90
2023-03-29T10:51:19.659Z,99.90
2023-03-29T10:54:24.211Z,99.90
2023-03-29T10:57:46.048Z,99.90
2023-03-29T11:00:57.075Z,99.90
2023-03-29T11:04:01.783Z,99.90
2023-03-29T11:07:06.404Z,99.90
2023-03-29T11:10:29.336Z,99.90
2023-03-29T11:14:09.244Z,99.90
2023-03-29T11:17:22.862Z,99.90
2023-03-29T11:20:32.377Z,99.90
2023-03-29T11:24:04.115Z,99.90
2023-03-29T11:27:27.369Z,99.90
2023-03-29T11:30:39.788Z,99.90
2023-03-29T11:33:50.028Z,99.90
2023-03-29T11:37:01.008Z,99.90
2023-03-29T11:40:05.643Z,99.90
2023-03-29T11:43:13.552Z,99.90
2023-03-29T11:46:20.968Z,99.90
2023-03-29T11:49:28.110Z,99.90
2023-03-29T11:52:51.493Z,99.90
2023-03-29T11:55:56.986Z,99.90
2023-03-29T11:59:05.411Z,99.90
2023-03-29T12:02:17.768Z,99.90
2023-03-29T12:05:24.290Z,99.90
2023-03-29T12:08:39.768Z,99.90
2023-03-29T12:11:54.362Z,99.90
2023-03-29T12:15:02.620Z,99.90
2023-03-29T12:18:14.600Z,99.90
2023-03-29T12:21:21.231Z,99.90
2023-03-29T12:24:28.274Z,99.90
2023-03-29T12:27:36.627Z,99.90
2023-03-29T12:30:48.591Z,99.90
2023-03-29T12:33:53.099Z,97.20
2023-03-29T12:37:39.346Z,96.50
2023-03-29T12:41:11.057Z,95.40
2023-03-29T12:45:01.060Z,98.50
2023-03-29T12:48:17.643Z,84.90
2023-03-29T12:51:26.570Z,56.20
2023-03-29T12:54:32.335Z,19.30
2023-03-29T12:57:42.069Z,1.00
2023-03-29T13:00:47.922Z,1.00
2023-03-29T13:03:58.125Z,1.00
2023-03-29T13:07:03.502Z,1.00
2023-03-29T13:10:08.920Z,1.00
2023-03-29T13:13:16.756Z,1.00
2023-03-29T13:16:28.827Z,99.90
2023-03-29T13:19:44.741Z,99.90
2023-03-29T13:22:58.353Z,99.90
2023-03-29T13:26:07.610Z,99.90
2023-03-29T13:29:20.277Z,99.90
2023-03-29T13:32:40.292Z,99.90
2023-03-29T13:35:53.644Z,99.90
2023-03-29T13:39:00.592Z,99.90
2023-03-29T13:42:18.785Z,99.90
2023-03-29T13:45:25.610Z,99.90
2023-03-29T13:48:31.896Z,99.90
2023-03-29T13:51:41.016Z,99.90
2023-03-29T13:54:48.384Z,99.90
2023-03-29T13:57:55.904Z,99.90
2023-03-29T14:01:07.177Z,99.90
2023-03-29T14:04:14.404Z,99.90
2023-03-29T14:07:21.095Z,99.90
2023-03-29T14:10:33.379Z,99.90
2023-03-29T14:13:38.308Z,99.90
2023-03-29T14:16:43.031Z,99.90
2023-03-29T14:19:48.319Z,99.90
2023-03-29T14:22:53.372Z,99.90
2023-03-29T14:26:05.964Z,99.90
2023-03-29T14:29:11.265Z,99.90
2023-03-29T14:32:17.147Z,99.90
2023-03-29T14:35:27.107Z,99.90
2023-03-29T14:38:31.960Z,99.90
2023-03-29T14:41:37.413Z,99.90
2023-03-29T14:44:42.831Z,99.90
2023-03-29T14:47:47.544Z,99.90
2023-03-29T14:50:52.435Z,99.90
2023-03-29T14:54:02.119Z,99.90
2023-03-29T14:57:07.384Z,99.90
2023-03-29T15:00:22.078Z,99.90
2023-03-29T15:03:27.218Z,99.90
2023-03-29T15:06:32.034Z,99.90
2023-03-29T15:09:38.434Z,99.90
2023-03-29T15:12:42.951Z,1.00
2023-03-29T15:15:50.971Z,99.90
2023-03-29T15:18:55.241Z,99.90
2023-03-29T15:22:03.605Z,1.00
2023-03-29T15:25:17.134Z,1.00
2023-03-29T15:28:29.870Z,1.00
2023-03-29T15:31:38.271Z,1.00
2023-03-29T15:34:42.679Z,1.00
2023-03-29T15:37:47.308Z,1.00
2023-03-29T15:40:51.471Z,1.00
2023-03-29T15:43:56.011Z,1.00
2023-03-29T15:47:00.361Z,1.00
2023-03-29T15:50:04.732Z,1.00
2023-03-29T15:53:15.197Z,1.00
2023-03-29T15:56:20.982Z,1.00
2023-03-29T15:59:25.041Z,1.00
2023-03-29T16:02:29.446Z,1.00
2023-03-29T16:05:33.820Z,10.00
2023-03-29T16:08:38.074Z,2.80
2023-03-29T16:11:42.735Z,7.50
2023-03-29T16:14:47.383Z,42.20
2023-03-29T16:17:51.807Z,49.20
2023-03-29T16:20:56.903Z,58.40
2023-03-29T16:24:01.701Z,72.70
2023-03-29T16:27:06.040Z,82.10
2023-03-29T16:30:10.958Z,95.90
2023-03-29T16:33:15.337Z,99.90
2023-03-29T16:36:19.790Z,99.80
2023-03-29T16:39:24.262Z,99.90
2023-03-29T16:42:28.276Z,99.90
2023-03-29T16:45:32.731Z,99.90
2023-03-29T16:48:37.176Z,99.90
2023-03-29T16:51:41.388Z,99.90
2023-03-29T16:54:46.895Z,99.90
2023-03-29T16:57:52.158Z,99.90
2023-03-29T17:00:57.180Z,99.90
2023-03-29T17:04:02.285Z,99.90
2023-03-29T17:07:06.767Z,99.90
2023-03-29T17:10:12.260Z,99.90
2023-03-29T17:13:16.724Z,99.90
2023-03-29T17:16:21.136Z,99.90
2023-03-29T17:19:25.874Z,99.90
2023-03-29T17:22:30.188Z,99.90
2023-03-29T17:25:34.219Z,99.90
2023-03-29T17:28:38.694Z,99.90
2023-03-29T17:31:47.795Z,99.90
2023-03-29T17:34:53.039Z,99.90
2023-03-29T17:37:58.633Z,99.90
2023-03-29T17:41:04.411Z,99.90
2023-03-29T17:44:09.030Z,99.90
2023-03-29T17:47:14.046Z,99.90
2023-03-29T17:50:18.445Z,99.90
2023-03-29T17:53:23.100Z,99.90
2023-03-29T17:56:27.886Z,99.90
2023-03-29T17:59:32.240Z,99.90
2023-03-29T18:02:36.422Z,99.90
2023-03-29T18:05:40.740Z,99.90
2023-03-29T18:08:44.938Z,99.90
2023-03-29T18:11:49.140Z,99.90
2023-03-29T18:14:53.584Z,99.90
2023-03-29T18:17:58.008Z,99.90
2023-03-29T18:21:02.493Z,99.90
2023-03-29T18:24:06.855Z,99.90
2023-03-29T18:27:12.244Z,99.90
2023-03-29T18:30:16.857Z,99.90
2023-03-29T18:33:21.396Z,99.90
2023-03-29T18:36:26.043Z,99.90
2023-03-29T18:39:31.911Z,99.90
2023-03-29T18:42:36.111Z,99.90
2023-03-29T18:45:40.432Z,99.90
2023-03-29T18:48:44.963Z,99.90
2023-03-29T18:51:49.961Z,99.90
2023-03-29T18:54:54.464Z,99.90
2023-03-29T18:57:58.355Z,99.90
2023-03-29T19:01:04.541Z,99.90
2023-03-29T19:04:08.705Z,99.90
2023-03-29T19:07:13.444Z,99.90
2023-03-29T19:10:17.953Z,99.90
2023-03-29T19:13:22.071Z,99.90
2023-03-29T19:16:27.434Z,99.90
2023-03-29T19:19:31.744Z,99.90
2023-03-29T19:22:37.036Z,99.90
2023-03-29T19:25:43.296Z,99.90
2023-03-29T19:28:47.940Z,99.90
2023-03-29T19:31:52.026Z,99.90
2023-03-29T19:34:56.065Z,99.90
2023-03-29T19:38:00.792Z,99.90
2023-03-29T19:41:07.481Z,99.90
2023-03-29T19:44:11.826Z,99.90
2023-03-29T19:47:16.039Z,99.90
2023-03-29T19:50:20.143Z,99.90
2023-03-29T19:53:24.355Z,99.90
2023-03-29T19:56:28.909Z,99.90
2023-03-29T19:59:37.972Z,99.90
2023-03-29T20:02:42.749Z,99.90
2023-03-29T20:05:47.485Z,99.90
2023-03-29T20:08:52.863Z,99.90
2023-03-29T20:11:57.173Z,99.90
2023-03-29T20:15:02.104Z,99.90
2023-03-29T20:18:08.433Z,99.90
2023-03-29T20:21:17.275Z,99.90
2023-03-29T20:24:22.223Z,99.90
2023-03-29T20:27:32.239Z,99.90
2023-03-29T20:30:36.650Z,99.90
2023-03-29T20:33:44.416Z,99.90
2023-03-29T20:36:49.542Z,99.90
2023-03-29T20:39:56.762Z,99.90
2023-03-29T20:43:07.446Z,99.90
2023-03-29T20:46:18.339Z,99.90
2023-03-29T20:49:26.463Z,99.90
2023-03-29T20:52:33.524Z,99.90
2023-03-29T20:55:42.674Z,99.90
2023-03-29T20:58:49.269Z,99.90
2023-03-29T21:01:55.063Z,99.90
2023-03-29T21:05:00.247Z,99.90
2023-03-29T21:08:04.737Z,99.90
2023-03-29T21:11:13.009Z,99.90
2023-03-29T21:14:19.805Z,99.90
2023-03-29T21:17:30.755Z,99.90
2023-03-29T21:20:38.342Z,99.90
2023-03-29T21:23:43.137Z,99.90
2023-03-29T21:26:48.761Z,99.90
2023-03-29T21:29:56.419Z,99.90
2023-03-29T21:33:02.023Z,99.90
2023-03-29T21:36:06.527Z,99.90
2023-03-29T21:39:10.529Z,99.90
2023-03-29T21:42:14.903Z,99.90
2023-03-29T21:45:19.744Z,99.90
2023-03-29T21:48:24.869Z,99.90
2023-03-29T21:51:29.707Z,99.90
2023-03-29T21:54:34.028Z,99.90
2023-03-29T21:57:40.711Z,99.90
2023-03-29T22:00:47.154Z,99.90
2023-03-29T22:03:52.542Z,99.90
2023-03-29T22:06:57.013Z,99.90
2023-03-29T22:10:04.219Z,99.90
2023-03-29T22:13:09.327Z,99.90
2023-03-29T22:16:18.287Z,99.90
2023-03-29T22:19:25.120Z,99.90
2023-03-29T22:22:30.434Z,99.90
2023-03-29T22:25:37.549Z,99.90
2023-03-29T22:28:43.026Z,99.90
2023-03-29T22:31:54.683Z,99.90
2023-03-29T22:35:00.229Z,99.90
2023-03-29T22:38:04.283Z,99.90
2023-03-29T22:41:08.427Z,99.90
2023-03-29T22:44:13.055Z,99.90
2023-03-29T22:47:17.735Z,99.90
2023-03-29T22:50:23.492Z,99.90
2023-03-29T22:53:33.518Z,99.90
2023-03-29T22:56:38.490Z,99.90
2023-03-29T22:59:43.963Z,99.90
2023-03-29T23:02:50.881Z,99.90
2023-03-29T23:05:56.306Z,99.90
2023-03-29T23:09:03.173Z,99.90
2023-03-29T23:12:07.640Z,99.90
2023-03-29T23:15:12.407Z,99.90
2023-03-29T23:18:21.170Z,99.90
2023-03-29T23:21:27.824Z,99.90
2023-03-29T23:24:32.524Z,99.90
2023-03-29T23:27:37.525Z,99.90
2023-03-29T23:30:41.778Z,99.90
2023-03-29T23:33:45.711Z,99.90
2023-03-29T23:36:50.246Z,99.90
2023-03-29T23:39:54.963Z,99.90
2023-03-29T23:42:59.497Z,99.90
2023-03-29T23:46:05.662Z,99.90
2023-03-29T23:49:10.417Z,99.90
2023-03-29T23:52:15.378Z,99.90
2023-03-29T23:55:19.629Z,99.90
2023-03-29T23:58:24.155Z,99.90
